sensor_id;sensor_type;location;lat;lon;timestamp;pressure;altitude;pressure_sealevel;temperature;humidity
63019;BME280;49105;46.046;10.760;2023-02-18T00:00:42;96793.09;;;2.62;63.44
63019;BME280;49105;46.046;10.760;2023-02-18T00:03:15;96794.69;;;2.63;63.38
63019;BME280;49105;46.046;10.760;2023-02-18T00:05:40;96794.78;;;2.76;62.79
63019;BME280;49105;46.046;10.760;2023-02-18T00:08:06;96786.13;;;2.82;62.94
63019;BME280;49105;46.046;10.760;2023-02-18T00:10:40;96789.06;;;2.59;63.28
63019;BME280;49105;46.046;10.760;2023-02-18T00:13:12;96793.03;;;2.48;63.80
63019;BME280;49105;46.046;10.760;2023-02-18T00:15:43;96789.81;;;2.53;63.73
63019;BME280;49105;46.046;10.760;2023-02-18T00:18:15;96790.44;;;2.55;63.53
63019;BME280;49105;46.046;10.760;2023-02-18T00:20:50;96791.84;;;2.58;63.36
63019;BME280;49105;46.046;10.760;2023-02-18T00:23:18;96790.25;;;2.57;63.37
63019;BME280;49105;46.046;10.760;2023-02-18T00:26:05;96788.81;;;2.54;63.35
63019;BME280;49105;46.046;10.760;2023-02-18T00:28:31;96781.41;;;2.58;63.55
63019;BME280;49105;46.046;10.760;2023-02-18T00:30:56;96785.88;;;2.64;63.39
63019;BME280;49105;46.046;10.760;2023-02-18T00:33:31;96774.56;;;2.57;63.41
63019;BME280;49105;46.046;10.760;2023-02-18T00:36:09;96774.03;;;2.33;63.83
63019;BME280;49105;46.046;10.760;2023-02-18T00:38:35;96775.41;;;2.29;64.31
63019;BME280;49105;46.046;10.760;2023-02-18T00:41:01;96773.66;;;2.36;63.53
63019;BME280;49105;46.046;10.760;2023-02-18T00:43:27;96770.09;;;2.44;64.03
63019;BME280;49105;46.046;10.760;2023-02-18T00:45:58;96770.09;;;2.51;63.56
63019;BME280;49105;46.046;10.760;2023-02-18T00:48:24;96766.88;;;2.48;63.50
63019;BME280;49105;46.046;10.760;2023-02-18T00:50:49;96756.06;;;2.58;63.68
63019;BME280;49105;46.046;10.760;2023-02-18T00:53:21;96762.75;;;2.67;63.56
63019;BME280;49105;46.046;10.760;2023-02-18T00:55:49;96752.94;;;2.76;63.17
63019;BME280;49105;46.046;10.760;2023-02-18T00:58:21;96742.56;;;2.48;63.72
63019;BME280;49105;46.046;10.760;2023-02-18T01:00:47;96738.41;;;2.26;63.90
63019;BME280;49105;46.046;10.760;2023-02-18T01:03:13;96736.00;;;2.24;64.17
63019;BME280;49105;46.046;10.760;2023-02-18T01:05:48;96737.03;;;2.23;64.51
63019;BME280;49105;46.046;10.760;2023-02-18T01:08:24;96734.72;;;2.13;64.10
63019;BME280;49105;46.046;10.760;2023-02-18T01:11:01;96729.28;;;2.08;64.38
63019;BME280;49105;46.046;10.760;2023-02-18T01:13:30;96734.56;;;2.15;64.49
63019;BME280;49105;46.046;10.760;2023-02-18T01:15:56;96727.53;;;2.22;64.19
63019;BME280;49105;46.046;10.760;2023-02-18T01:18:23;96725.41;;;2.32;63.84
63019;BME280;49105;46.046;10.760;2023-02-18T01:20:58;96724.03;;;2.36;64.20
63019;BME280;49105;46.046;10.760;2023-02-18T01:23:30;96726.22;;;2.33;63.79
63019;BME280;49105;46.046;10.760;2023-02-18T01:25:57;96727.53;;;2.22;64.01
63019;BME280;49105;46.046;10.760;2023-02-18T01:28:32;96726.47;;;2.10;64.80
63019;BME280;49105;46.046;10.760;2023-02-18T01:34:18;96729.34;;;2.21;63.82
63019;BME280;49105;46.046;10.760;2023-02-18T01:36:50;96722.38;;;2.29;64.07
63019;BME280;49105;46.046;10.760;2023-02-18T01:39:15;96721.59;;;2.35;63.92
63019;BME280;49105;46.046;10.760;2023-02-18T01:41:44;96722.63;;;2.40;64.13
63019;BME280;49105;46.046;10.760;2023-02-18T01:44:22;96718.16;;;2.34;63.80
63019;BME280;49105;46.046;10.760;2023-02-18T01:46:57;96718.69;;;2.16;64.23
63019;BME280;49105;46.046;10.760;2023-02-18T01:49:26;96722.97;;;1.96;65.06
63019;BME280;49105;46.046;10.760;2023-02-18T01:52:05;96723.34;;;1.86;64.88
63019;BME280;49105;46.046;10.760;2023-02-18T01:54:55;96723.28;;;1.80;65.39
63019;BME280;49105;46.046;10.760;2023-02-18T01:57:34;96717.47;;;1.84;64.78
63019;BME280;49105;46.046;10.760;2023-02-18T02:00:14;96717.09;;;1.87;64.71
63019;BME280;49105;46.046;10.760;2023-02-18T02:02:51;96714.13;;;1.90;65.07
63019;BME280;49105;46.046;10.760;2023-02-18T02:05:19;96711.13;;;1.93;64.71
63019;BME280;49105;46.046;10.760;2023-02-18T02:07:53;96709.34;;;1.94;64.96
63019;BME280;49105;46.046;10.760;2023-02-18T02:10:46;96717.16;;;1.66;64.59
63019;BME280;49105;46.046;10.760;2023-02-18T02:19:14;96707.75;;;1.71;65.33
63019;BME280;49105;46.046;10.760;2023-02-18T02:27:24;96704.16;;;1.44;66.11
63019;BME280;49105;46.046;10.760;2023-02-18T02:35:31;96710.03;;;1.53;65.54
63019;BME280;49105;46.046;10.760;2023-02-18T02:38:10;96716.94;;;1.61;65.69
63019;BME280;49105;46.046;10.760;2023-02-18T02:40:48;96708.53;;;1.65;65.66
63019;BME280;49105;46.046;10.760;2023-02-18T02:46:26;96701.97;;;1.76;64.85
63019;BME280;49105;46.046;10.760;2023-02-18T02:49:18;96695.22;;;1.88;64.67
63019;BME280;49105;46.046;10.760;2023-02-18T02:54:38;96689.69;;;1.70;65.40
63019;BME280;49105;46.046;10.760;2023-02-18T03:00:02;96686.75;;;1.52;65.58
63019;BME280;49105;46.046;10.760;2023-02-18T03:11:27;96678.44;;;1.69;65.27
63019;BME280;49105;46.046;10.760;2023-02-18T03:14:09;96678.69;;;1.74;65.12
63019;BME280;49105;46.046;10.760;2023-02-18T03:16:50;96676.88;;;1.75;65.35
63019;BME280;49105;46.046;10.760;2023-02-18T03:19:32;96678.97;;;1.58;65.41
63019;BME280;49105;46.046;10.760;2023-02-18T03:24:45;96687.50;;;1.45;65.33
63019;BME280;49105;46.046;10.760;2023-02-18T03:27:23;96686.84;;;1.37;65.74
63019;BME280;49105;46.046;10.760;2023-02-18T03:30:04;96691.06;;;1.38;65.75
63019;BME280;49105;46.046;10.760;2023-02-18T03:32:33;96692.66;;;1.39;66.22
63019;BME280;49105;46.046;10.760;2023-02-18T03:35:14;96686.56;;;1.32;65.81
63019;BME280;49105;46.046;10.760;2023-02-18T03:37:47;96679.03;;;1.43;65.66
63019;BME280;49105;46.046;10.760;2023-02-18T03:40:18;96687.59;;;1.59;65.59
63019;BME280;49105;46.046;10.760;2023-02-18T03:42:53;96679.16;;;1.57;65.69
63019;BME280;49105;46.046;10.760;2023-02-18T03:45:28;96685.06;;;1.44;66.16
63019;BME280;49105;46.046;10.760;2023-02-18T03:48:02;96676.44;;;1.43;65.55
63019;BME280;49105;46.046;10.760;2023-02-18T03:50:40;96670.75;;;1.33;65.77
63019;BME280;49105;46.046;10.760;2023-02-18T03:53:11;96667.13;;;1.28;66.20
63019;BME280;49105;46.046;10.760;2023-02-18T03:55:43;96671.75;;;1.32;66.45
63019;BME280;49105;46.046;10.760;2023-02-18T03:58:18;96664.16;;;1.37;65.80
63019;BME280;49105;46.046;10.760;2023-02-18T04:00:55;96664.53;;;1.34;66.15
63019;BME280;49105;46.046;10.760;2023-02-18T04:03:21;96669.53;;;1.29;66.23
63019;BME280;49105;46.046;10.760;2023-02-18T04:05:52;96674.16;;;1.34;65.74
63019;BME280;49105;46.046;10.760;2023-02-18T04:08:18;96673.81;;;1.37;65.84
63019;BME280;49105;46.046;10.760;2023-02-18T04:10:49;96673.97;;;1.35;66.05
63019;BME280;49105;46.046;10.760;2023-02-18T04:13:15;96673.97;;;1.35;66.15
63019;BME280;49105;46.046;10.760;2023-02-18T04:15:42;96674.22;;;1.40;66.08
63019;BME280;49105;46.046;10.760;2023-02-18T04:18:12;96669.81;;;1.41;66.02
63019;BME280;49105;46.046;10.760;2023-02-18T04:20:40;96662.00;;;1.41;66.03
63019;BME280;49105;46.046;10.760;2023-02-18T04:23:06;96664.50;;;1.28;66.04
63019;BME280;49105;46.046;10.760;2023-02-18T04:25:37;96664.81;;;1.18;66.06
63019;BME280;49105;46.046;10.760;2023-02-18T04:28:13;96651.59;;;1.19;66.16
63019;BME280;49105;46.046;10.760;2023-02-18T04:30:43;96662.25;;;1.24;65.70
63019;BME280;49105;46.046;10.760;2023-02-18T04:33:15;96661.94;;;1.34;65.94
63019;BME280;49105;46.046;10.760;2023-02-18T04:35:49;96663.38;;;1.37;66.30
63019;BME280;49105;46.046;10.760;2023-02-18T04:38:15;96659.28;;;1.28;65.93
63019;BME280;49105;46.046;10.760;2023-02-18T04:40:41;96660.91;;;1.29;65.93
63019;BME280;49105;46.046;10.760;2023-02-18T04:43:06;96666.16;;;1.35;66.45
63019;BME280;49105;46.046;10.760;2023-02-18T04:48:53;96658.34;;;1.14;66.25
63019;BME280;49105;46.046;10.760;2023-02-18T04:51:19;96655.72;;;1.07;66.76
63019;BME280;49105;46.046;10.760;2023-02-18T04:53:45;96650.66;;;1.06;66.27
63019;BME280;49105;46.046;10.760;2023-02-18T04:56:11;96654.06;;;1.06;66.71
63019;BME280;49105;46.046;10.760;2023-02-18T04:58:42;96652.72;;;1.10;66.62
63019;BME280;49105;46.046;10.760;2023-02-18T05:01:07;96650.16;;;1.17;66.63
63019;BME280;49105;46.046;10.760;2023-02-18T05:03:39;96647.75;;;0.94;66.47
63019;BME280;49105;46.046;10.760;2023-02-18T05:06:04;96652.84;;;0.81;66.93
63019;BME280;49105;46.046;10.760;2023-02-18T05:08:30;96655.81;;;0.78;66.84
63019;BME280;49105;46.046;10.760;2023-02-18T05:10:55;96651.25;;;0.80;66.62
63019;BME280;49105;46.046;10.760;2023-02-18T05:13:21;96646.34;;;0.91;66.72
63019;BME280;49105;46.046;10.760;2023-02-18T05:15:47;96649.78;;;0.98;66.58
63019;BME280;49105;46.046;10.760;2023-02-18T05:18:13;96645.13;;;0.94;66.40
63019;BME280;49105;46.046;10.760;2023-02-18T05:20:47;96654.84;;;1.00;66.40
63019;BME280;49105;46.046;10.760;2023-02-18T05:23:19;96652.09;;;1.08;66.31
63019;BME280;49105;46.046;10.760;2023-02-18T05:25:51;96649.53;;;1.15;66.67
63019;BME280;49105;46.046;10.760;2023-02-18T05:28:26;96652.00;;;1.23;66.52
63019;BME280;49105;46.046;10.760;2023-02-18T05:30:54;96652.41;;;1.20;66.11
63019;BME280;49105;46.046;10.760;2023-02-18T05:33:20;96655.00;;;1.20;66.66
63019;BME280;49105;46.046;10.760;2023-02-18T05:35:51;96652.84;;;1.23;66.18
63019;BME280;49105;46.046;10.760;2023-02-18T05:38:26;96662.25;;;1.24;66.57
63019;BME280;49105;46.046;10.760;2023-02-18T05:40:57;96652.84;;;1.23;66.36
63019;BME280;49105;46.046;10.760;2023-02-18T05:43:23;96661.84;;;1.21;66.48
63019;BME280;49105;46.046;10.760;2023-02-18T05:45:49;96656.19;;;1.17;66.57
63019;BME280;49105;46.046;10.760;2023-02-18T05:48:20;96655.16;;;1.12;66.71
63019;BME280;49105;46.046;10.760;2023-02-18T05:50:54;96658.44;;;0.99;66.38
63019;BME280;49105;46.046;10.760;2023-02-18T05:53:29;96659.38;;;0.91;66.86
63019;BME280;49105;46.046;10.760;2023-02-18T05:56:01;96657.31;;;0.87;66.73
63019;BME280;49105;46.046;10.760;2023-02-18T05:58:27;96657.38;;;0.93;66.88
63019;BME280;49105;46.046;10.760;2023-02-18T06:00:52;96662.69;;;1.07;66.37
63019;BME280;49105;46.046;10.760;2023-02-18T06:03:18;96663.09;;;1.04;66.78
63019;BME280;49105;46.046;10.760;2023-02-18T06:05:50;96665.56;;;0.90;67.16
63019;BME280;49105;46.046;10.760;2023-02-18T06:08:21;96663.50;;;0.86;67.16
63019;BME280;49105;46.046;10.760;2023-02-18T06:10:56;96663.19;;;0.74;67.70
63019;BME280;49105;46.046;10.760;2023-02-18T06:13:30;96656.94;;;0.68;67.55
63019;BME280;49105;46.046;10.760;2023-02-18T06:16:05;96662.94;;;0.69;67.41
63019;BME280;49105;46.046;10.760;2023-02-18T06:18:39;96670.41;;;0.72;67.40
63019;BME280;49105;46.046;10.760;2023-02-18T06:21:11;96664.75;;;0.68;67.16
63019;BME280;49105;46.046;10.760;2023-02-18T06:23:50;96674.69;;;0.58;67.42
63019;BME280;49105;46.046;10.760;2023-02-18T06:26:28;96674.47;;;0.60;67.70
63019;BME280;49105;46.046;10.760;2023-02-18T06:29:02;96678.53;;;0.62;67.35
63019;BME280;49105;46.046;10.760;2023-02-18T06:31:28;96680.94;;;0.64;67.21
63019;BME280;49105;46.046;10.760;2023-02-18T06:33:53;96678.13;;;0.65;67.64
63019;BME280;49105;46.046;10.760;2023-02-18T06:36:19;96679.81;;;0.73;67.05
63019;BME280;49105;46.046;10.760;2023-02-18T06:38:57;96674.50;;;0.81;66.88
63019;BME280;49105;46.046;10.760;2023-02-18T06:41:24;96681.72;;;0.79;66.78
63019;BME280;49105;46.046;10.760;2023-02-18T06:43:55;96680.16;;;0.85;67.42
63019;BME280;49105;46.046;10.760;2023-02-18T06:46:21;96674.81;;;0.93;67.30
63019;BME280;49105;46.046;10.760;2023-02-18T06:48:55;96673.13;;;0.85;66.72
63019;BME280;49105;46.046;10.760;2023-02-18T06:51:27;96683.44;;;0.72;67.66
63019;BME280;49105;46.046;10.760;2023-02-18T06:53:55;96688.63;;;0.72;67.26
63019;BME280;49105;46.046;10.760;2023-02-18T06:56:20;96681.31;;;0.82;67.70
63019;BME280;49105;46.046;10.760;2023-02-18T06:58:52;96695.91;;;0.98;67.30
63019;BME280;49105;46.046;10.760;2023-02-18T07:01:20;96683.31;;;1.02;67.01
63019;BME280;49105;46.046;10.760;2023-02-18T07:03:58;96689.88;;;0.97;67.26
63019;BME280;49105;46.046;10.760;2023-02-18T07:06:33;96702.75;;;0.99;67.27
63019;BME280;49105;46.046;10.760;2023-02-18T07:09:08;96696.19;;;1.03;67.09
63019;BME280;49105;46.046;10.760;2023-02-18T07:11:42;96702.44;;;1.09;67.77
63019;BME280;49105;46.046;10.760;2023-02-18T07:14:08;96701.00;;;1.06;67.51
63019;BME280;49105;46.046;10.760;2023-02-18T07:16:33;96700.06;;;1.14;67.73
63019;BME280;49105;46.046;10.760;2023-02-18T07:18:59;96705.78;;;1.24;67.10
63019;BME280;49105;46.046;10.760;2023-02-18T07:21:24;96701.06;;;1.34;66.96
63019;BME280;49105;46.046;10.760;2023-02-18T07:23:59;96711.84;;;1.53;67.29
63019;BME280;49105;46.046;10.760;2023-02-18T07:26:34;96705.34;;;1.70;66.72
63019;BME280;49105;46.046;10.760;2023-02-18T07:29:11;96698.94;;;1.72;67.19
63019;BME280;49105;46.046;10.760;2023-02-18T07:31:43;96692.53;;;1.75;67.08
63019;BME280;49105;46.046;10.760;2023-02-18T07:34:09;96687.16;;;1.83;66.87
63019;BME280;49105;46.046;10.760;2023-02-18T07:36:46;96684.63;;;1.96;67.20
63019;BME280;49105;46.046;10.760;2023-02-18T07:39:12;96684.63;;;1.96;66.42
63019;BME280;49105;46.046;10.760;2023-02-18T07:41:38;96694.47;;;1.94;66.62
63019;BME280;49105;46.046;10.760;2023-02-18T07:44:06;96684.81;;;1.95;66.77
63019;BME280;49105;46.046;10.760;2023-02-18T07:46:32;96691.13;;;2.07;66.76
63019;BME280;49105;46.046;10.760;2023-02-18T07:48:58;96678.91;;;2.14;67.20
63019;BME280;49105;46.046;10.760;2023-02-18T07:51:23;96678.16;;;2.27;66.32
63019;BME280;49105;46.046;10.760;2023-02-18T07:53:49;96682.44;;;2.35;66.80
63019;BME280;49105;46.046;10.760;2023-02-18T07:56:23;96666.72;;;2.28;66.48
63019;BME280;49105;46.046;10.760;2023-02-18T07:58:49;96671.91;;;2.21;66.95
63019;BME280;49105;46.046;10.760;2023-02-18T08:01:30;96662.88;;;2.24;66.66
63019;BME280;49105;46.046;10.760;2023-02-18T08:03:58;96665.31;;;2.32;67.06
63019;BME280;49105;46.046;10.760;2023-02-18T08:06:34;96662.38;;;2.48;66.37
63019;BME280;49105;46.046;10.760;2023-02-18T08:09:04;96660.34;;;2.51;66.26
63019;BME280;49105;46.046;10.760;2023-02-18T08:11:37;96654.75;;;2.47;66.31
63019;BME280;49105;46.046;10.760;2023-02-18T08:14:03;96653.91;;;2.46;66.53
63019;BME280;49105;46.046;10.760;2023-02-18T08:16:29;96657.56;;;2.59;66.63
63019;BME280;49105;46.046;10.760;2023-02-18T08:18:55;96646.56;;;2.77;66.42
63019;BME280;49105;46.046;10.760;2023-02-18T08:21:30;96637.75;;;2.97;66.24
63019;BME280;49105;46.046;10.760;2023-02-18T08:24:08;96643.56;;;2.99;66.23
63019;BME280;49105;46.046;10.760;2023-02-18T08:26:33;96639.16;;;3.07;65.87
63019;BME280;49105;46.046;10.760;2023-02-18T08:28:59;96634.75;;;3.14;66.15
63019;BME280;49105;46.046;10.760;2023-02-18T08:31:30;96635.75;;;3.19;65.97
63019;BME280;49105;46.046;10.760;2023-02-18T08:33:58;96633.53;;;3.23;66.27
63019;BME280;49105;46.046;10.760;2023-02-18T08:36:25;96639.38;;;3.32;65.72
63019;BME280;49105;46.046;10.760;2023-02-18T08:38:57;96632.91;;;3.41;65.75
63019;BME280;49105;46.046;10.760;2023-02-18T08:41:22;96632.91;;;3.41;65.55
63019;BME280;49105;46.046;10.760;2023-02-18T08:43:48;96635.13;;;3.51;65.45
63019;BME280;49105;46.046;10.760;2023-02-18T08:46:22;96628.69;;;3.60;65.23
63019;BME280;49105;46.046;10.760;2023-02-18T08:48:48;96626.66;;;3.55;65.43
63019;BME280;49105;46.046;10.760;2023-02-18T08:51:17;96624.63;;;3.57;65.47
63019;BME280;49105;46.046;10.760;2023-02-18T08:53:43;96636.31;;;3.61;65.39
63019;BME280;49105;46.046;10.760;2023-02-18T08:56:10;96636.91;;;3.70;65.46
63019;BME280;49105;46.046;10.760;2023-02-18T08:58:40;96634.91;;;3.72;65.62
63019;BME280;49105;46.046;10.760;2023-02-18T09:01:11;96647.19;;;3.71;65.29
63019;BME280;49105;46.046;10.760;2023-02-18T09:03:40;96642.94;;;3.77;65.38
63019;BME280;49105;46.046;10.760;2023-02-18T09:06:06;96630.03;;;3.89;65.44
63019;BME280;49105;46.046;10.760;2023-02-18T09:08:35;96633.41;;;4.03;65.40
63019;BME280;49105;46.046;10.760;2023-02-18T09:11:06;96634.97;;;4.17;65.04
63019;BME280;49105;46.046;10.760;2023-02-18T09:13:41;96628.09;;;4.22;64.85
63019;BME280;49105;46.046;10.760;2023-02-18T09:16:10;96624.84;;;4.27;65.14
63019;BME280;49105;46.046;10.760;2023-02-18T09:18:43;96623.81;;;4.35;64.63
63019;BME280;49105;46.046;10.760;2023-02-18T09:21:13;96605.06;;;4.38;64.69
63019;BME280;49105;46.046;10.760;2023-02-18T09:23:43;96609.44;;;4.51;64.54
63019;BME280;49105;46.046;10.760;2023-02-18T09:26:13;96617.03;;;4.65;64.63
63019;BME280;49105;46.046;10.760;2023-02-18T09:28:39;96613.69;;;4.77;64.15
63019;BME280;49105;46.046;10.760;2023-02-18T09:31:09;96608.00;;;4.86;64.32
63019;BME280;49105;46.046;10.760;2023-02-18T09:33:41;96595.63;;;4.93;64.04
63019;BME280;49105;46.046;10.760;2023-02-18T09:36:08;96600.63;;;5.02;64.14
63019;BME280;49105;46.046;10.760;2023-02-18T09:38:43;96595.28;;;5.15;63.75
63019;BME280;49105;46.046;10.760;2023-02-18T09:41:17;96596.41;;;5.26;63.76
63019;BME280;49105;46.046;10.760;2023-02-18T09:43:50;96594.31;;;5.34;63.85
63019;BME280;49105;46.046;10.760;2023-02-18T09:46:24;96590.69;;;5.35;63.50
63019;BME280;49105;46.046;10.760;2023-02-18T09:48:52;96589.00;;;5.41;63.53
63019;BME280;49105;46.046;10.760;2023-02-18T09:51:18;96584.94;;;5.45;63.23
63019;BME280;49105;46.046;10.760;2023-02-18T09:53:44;96591.72;;;5.53;62.94
63019;BME280;49105;46.046;10.760;2023-02-18T09:56:27;96582.91;;;5.65;62.87
63019;BME280;49105;46.046;10.760;2023-02-18T09:59:19;96584.16;;;5.81;63.18
63019;BME280;49105;46.046;10.760;2023-02-18T10:01:47;96576.16;;;5.94;62.60
63019;BME280;49105;46.046;10.760;2023-02-18T10:04:39;96576.66;;;6.03;62.53
63019;BME280;49105;46.046;10.760;2023-02-18T10:07:17;96568.91;;;6.08;62.44
63019;BME280;49105;46.046;10.760;2023-02-18T10:09:44;96557.09;;;6.17;62.03
63019;BME280;49105;46.046;10.760;2023-02-18T10:12:21;96560.53;;;6.18;62.09
63019;BME280;49105;46.046;10.760;2023-02-18T10:14:59;96555.41;;;6.23;62.23
63019;BME280;49105;46.046;10.760;2023-02-18T10:17:30;96549.38;;;6.34;61.96
63019;BME280;49105;46.046;10.760;2023-02-18T10:19:59;96549.88;;;6.43;61.86
63019;BME280;49105;46.046;10.760;2023-02-18T10:22:25;96541.44;;;6.53;61.41
63019;BME280;49105;46.046;10.760;2023-02-18T10:25:03;96536.44;;;6.63;61.33
63019;BME280;49105;46.046;10.760;2023-02-18T10:27:38;96529.25;;;6.70;61.12
63019;BME280;49105;46.046;10.760;2023-02-18T10:32:46;96522.75;;;6.84;60.72
63019;BME280;49105;46.046;10.760;2023-02-18T10:35:34;96526.66;;;6.93;60.73
63019;BME280;49105;46.046;10.760;2023-02-18T10:38:11;96519.47;;;7.01;60.52
63019;BME280;49105;46.046;10.760;2023-02-18T10:41:01;96514.91;;;7.08;60.16
63019;BME280;49105;46.046;10.760;2023-02-18T10:44:28;96511.34;;;7.14;60.20
63019;BME280;49105;46.046;10.760;2023-02-18T10:52:19;96502.75;;;7.42;59.74
63019;BME280;49105;46.046;10.760;2023-02-18T10:55:00;96510.41;;;7.55;59.88
63019;BME280;49105;46.046;10.760;2023-02-18T10:57:28;96498.00;;;7.67;59.50
63019;BME280;49105;46.046;10.760;2023-02-18T11:02:41;96490.47;;;8.00;59.33
63019;BME280;49105;46.046;10.760;2023-02-18T11:05:23;96481.34;;;8.19;59.45
63019;BME280;49105;46.046;10.760;2023-02-18T11:07:52;96483.69;;;8.32;59.15
63019;BME280;49105;46.046;10.760;2023-02-18T11:10:31;96478.13;;;8.45;59.17
63019;BME280;49105;46.046;10.760;2023-02-18T11:13:08;96469.59;;;8.55;59.38
63019;BME280;49105;46.046;10.760;2023-02-18T11:18:47;96456.41;;;8.89;58.64
63019;BME280;49105;46.046;10.760;2023-02-18T11:23:56;96447.56;;;9.00;58.23
63019;BME280;49105;46.046;10.760;2023-02-18T11:26:40;96441.34;;;9.06;58.32
63019;BME280;49105;46.046;10.760;2023-02-18T11:29:21;96445.97;;;9.16;57.75
63019;BME280;49105;46.046;10.760;2023-02-18T11:31:56;96423.34;;;9.25;57.53
63019;BME280;49105;46.046;10.760;2023-02-18T11:34:33;96436.72;;;9.35;57.68
63019;BME280;49105;46.046;10.760;2023-02-18T11:37:09;96420.13;;;9.40;57.51
63019;BME280;49105;46.046;10.760;2023-02-18T11:39:42;96410.66;;;9.44;56.92
63019;BME280;49105;46.046;10.760;2023-02-18T11:42:17;96412.56;;;9.49;56.70
63019;BME280;49105;46.046;10.760;2023-02-18T11:44:55;96403.09;;;9.53;56.71
63019;BME280;49105;46.046;10.760;2023-02-18T11:47:32;96391.84;;;9.62;56.98
63019;BME280;49105;46.046;10.760;2023-02-18T11:52:43;96396.56;;;9.82;55.95
63019;BME280;49105;46.046;10.760;2023-02-18T11:55:18;96393.69;;;9.84;56.53
63019;BME280;49105;46.046;10.760;2023-02-18T11:58:03;96400.25;;;9.81;55.84
63019;BME280;49105;46.046;10.760;2023-02-18T12:00:44;96386.53;;;9.84;56.05
63019;BME280;49105;46.046;10.760;2023-02-18T12:06:19;96376.75;;;9.85;55.04
63019;BME280;49105;46.046;10.760;2023-02-18T12:09:13;96371.69;;;9.83;54.25
63019;BME280;49105;46.046;10.760;2023-02-18T12:11:51;96362.97;;;9.83;54.21
63019;BME280;49105;46.046;10.760;2023-02-18T12:14:20;96366.19;;;9.85;53.27
63019;BME280;49105;46.046;10.760;2023-02-18T12:17:05;96360.44;;;9.93;53.63
63019;BME280;49105;46.046;10.760;2023-02-18T12:20:00;96351.31;;;10.06;53.53
63019;BME280;49105;46.046;10.760;2023-02-18T12:30:42;96334.22;;;10.51;53.14
63019;BME280;49105;46.046;10.760;2023-02-18T12:47:19;96319.78;;;10.74;53.33
63019;BME280;49105;46.046;10.760;2023-02-18T12:59:04;96305.22;;;10.66;52.98
63019;BME280;49105;46.046;10.760;2023-02-18T13:15:02;96288.88;;;10.79;52.93
63019;BME280;49105;46.046;10.760;2023-02-18T13:17:33;96283.00;;;10.77;53.10
63019;BME280;49105;46.046;10.760;2023-02-18T13:20:19;96280.66;;;10.81;52.86
63019;BME280;49105;46.046;10.760;2023-02-18T13:22:52;96283.31;;;10.81;52.85
63019;BME280;49105;46.046;10.760;2023-02-18T13:25:21;96275.66;;;10.84;52.83
63019;BME280;49105;46.046;10.760;2023-02-18T13:33:22;96265.34;;;10.88;52.48
63019;BME280;49105;46.046;10.760;2023-02-18T13:41:19;96257.13;;;10.89;52.74
63019;BME280;49105;46.046;10.760;2023-02-18T13:43:45;96257.66;;;10.86;52.63
63019;BME280;49105;46.046;10.760;2023-02-18T13:46:21;96259.75;;;10.84;52.74
63019;BME280;49105;46.046;10.760;2023-02-18T13:51:44;96249.19;;;10.89;52.53
63019;BME280;49105;46.046;10.760;2023-02-18T13:56:41;96254.53;;;11.00;52.56
63019;BME280;49105;46.046;10.760;2023-02-18T14:01:52;96246.06;;;11.03;52.33
63019;BME280;49105;46.046;10.760;2023-02-18T14:09:57;96241.78;;;10.86;52.63
63019;BME280;49105;46.046;10.760;2023-02-18T14:22:56;96239.88;;;10.82;53.15
63019;BME280;49105;46.046;10.760;2023-02-18T14:42:41;96238.19;;;10.55;54.01
63019;BME280;49105;46.046;10.760;2023-02-18T14:50:42;96240.28;;;10.53;54.47
63019;BME280;49105;46.046;10.760;2023-02-18T14:53:19;96240.03;;;10.55;54.79
63019;BME280;49105;46.046;10.760;2023-02-18T14:55:57;96238.44;;;10.54;54.71
63019;BME280;49105;46.046;10.760;2023-02-18T14:58:36;96236.31;;;10.51;54.57
63019;BME280;49105;46.046;10.760;2023-02-18T15:01:19;96225.72;;;10.51;54.57
63019;BME280;49105;46.046;10.760;2023-02-18T15:03:55;96222.56;;;10.54;54.86
63019;BME280;49105;46.046;10.760;2023-02-18T15:06:35;96220.44;;;10.56;54.90
63019;BME280;49105;46.046;10.760;2023-02-18T15:09:12;96226.25;;;10.53;54.64
63019;BME280;49105;46.046;10.760;2023-02-18T15:11:46;96219.06;;;10.48;55.10
63019;BME280;49105;46.046;10.760;2023-02-18T15:14:19;96227.78;;;10.43;55.32
63019;BME280;49105;46.046;10.760;2023-02-18T15:16:49;96220.91;;;10.37;55.27
63019;BME280;49105;46.046;10.760;2023-02-18T15:19:27;96228.03;;;10.37;55.14
63019;BME280;49105;46.046;10.760;2023-02-18T15:21:55;96224.03;;;10.34;55.62
63019;BME280;49105;46.046;10.760;2023-02-18T15:24:31;96229.84;;;10.31;55.66
63019;BME280;49105;46.046;10.760;2023-02-18T15:27:01;96225.59;;;10.25;55.31
63019;BME280;49105;46.046;10.760;2023-02-18T15:29:34;96237.69;;;10.21;55.96
63019;BME280;49105;46.046;10.760;2023-02-18T15:32:13;96233.97;;;10.17;55.79
63019;BME280;49105;46.046;10.760;2023-02-18T15:34:39;96232.31;;;10.11;55.69
63019;BME280;49105;46.046;10.760;2023-02-18T15:37:14;96229.66;;;10.06;56.41
63019;BME280;49105;46.046;10.760;2023-02-18T15:39:49;96225.91;;;10.02;56.45
63019;BME280;49105;46.046;10.760;2023-02-18T15:42:35;96228.00;;;10.00;56.09
63019;BME280;49105;46.046;10.760;2023-02-18T15:45:13;96222.41;;;9.91;56.08
63019;BME280;49105;46.046;10.760;2023-02-18T15:47:44;96218.38;;;9.83;56.30
63019;BME280;49105;46.046;10.760;2023-02-18T15:50:21;96219.41;;;9.77;56.43
63019;BME280;49105;46.046;10.760;2023-02-18T15:52:48;96223.84;;;9.72;55.97
63019;BME280;49105;46.046;10.760;2023-02-18T15:55:33;96228.25;;;9.61;56.75
63019;BME280;49105;46.046;10.760;2023-02-18T15:58:09;96230.00;;;9.50;56.74
63019;BME280;49105;46.046;10.760;2023-02-18T16:00:48;96231.28;;;9.42;57.01
63019;BME280;49105;46.046;10.760;2023-02-18T16:03:20;96233.31;;;9.35;56.92
63019;BME280;49105;46.046;10.760;2023-02-18T16:12:02;96242.34;;;9.17;57.37
63019;BME280;49105;46.046;10.760;2023-02-18T16:14:43;96233.06;;;9.10;57.49
63019;BME280;49105;46.046;10.760;2023-02-18T16:19:58;96244.84;;;9.02;58.10
63019;BME280;49105;46.046;10.760;2023-02-18T16:25:18;96251.09;;;8.96;58.47
63019;BME280;49105;46.046;10.760;2023-02-18T16:28:02;96245.22;;;8.89;58.31